createdAt,value
2022-11-24T00:00:44.493Z,77252.91
2022-11-24T00:02:18.621Z,77260.81
2022-11-24T00:04:03.496Z,77252.91
2022-11-24T00:05:38.845Z,77260.81
2022-11-24T00:07:12.497Z,77270.69
2022-11-24T00:08:47.786Z,77256.84
2022-11-24T00:10:21.679Z,77266.75
2022-11-24T00:11:55.492Z,77270.69
2022-11-24T00:13:31.693Z,77264.75
2022-11-24T00:15:06.075Z,77264.75
2022-11-24T00:16:40.101Z,77276.63
2022-11-24T00:18:13.534Z,77268.72
2022-11-24T00:19:47.476Z,77256.84
2022-11-24T00:21:22.317Z,77262.78
2022-11-24T00:22:58.801Z,77272.69
2022-11-24T00:24:32.908Z,77276.63
2022-11-24T00:26:15.830Z,77266.75
2022-11-24T00:27:49.707Z,77270.69
2022-11-24T00:29:25.880Z,77268.72
2022-11-24T00:31:03.862Z,77260.81
2022-11-24T00:32:37.734Z,77274.66
2022-11-24T00:34:13.931Z,77272.69
2022-11-24T00:35:55.461Z,77264.75
2022-11-24T00:37:29.016Z,77260.81
2022-11-24T00:39:05.673Z,77256.84
2022-11-24T00:40:39.755Z,77256.84
2022-11-24T00:42:14.833Z,77252.91
2022-11-24T00:43:51.720Z,77250.91
2022-11-24T00:45:28.686Z,77248.94
2022-11-24T00:47:02.133Z,77256.84
2022-11-24T00:48:36.085Z,77248.94
2022-11-24T00:50:09.939Z,77248.94
2022-11-24T00:51:46.852Z,77252.91
2022-11-24T00:53:20.931Z,77245.00
2022-11-24T00:54:54.660Z,77241.03
2022-11-24T00:56:29.381Z,77245.00
2022-11-24T00:58:03.175Z,77250.91
2022-11-24T00:59:39.713Z,77241.03
2022-11-24T01:01:18.358Z,77229.16
2022-11-24T01:02:54.561Z,77241.03
2022-11-24T01:04:30.904Z,77241.03
2022-11-24T01:06:25.127Z,77243.00
2022-11-24T01:07:58.708Z,77231.16
2022-11-24T01:09:32.352Z,77229.16
2022-11-24T01:11:15.131Z,77229.16
2022-11-24T01:12:48.959Z,77233.13
2022-11-24T01:14:28.299Z,77233.13
2022-11-24T01:16:01.796Z,77233.13
2022-11-24T01:17:35.826Z,77235.09
2022-11-24T01:19:09.722Z,77233.13
2022-11-24T01:20:43.549Z,77239.06
2022-11-24T01:22:17.456Z,77229.16
2022-11-24T01:23:51.635Z,77231.16
2022-11-24T01:25:26.295Z,77229.16
2022-11-24T01:27:10.611Z,77221.25
2022-11-24T01:28:47.515Z,77229.16
2022-11-24T01:30:23.557Z,77219.28
2022-11-24T01:31:57.756Z,77211.38
2022-11-24T01:33:31.581Z,77201.47
2022-11-24T01:35:06.605Z,77205.44
2022-11-24T01:36:41.274Z,77213.34
2022-11-24T01:38:15.065Z,77221.25
2022-11-24T01:39:48.677Z,77219.28
2022-11-24T01:41:25.321Z,77213.34
2022-11-24T01:42:59.090Z,77199.50
2022-11-24T01:44:33.693Z,77201.47
2022-11-24T01:46:27.212Z,77201.47
2022-11-24T01:48:04.973Z,77203.47
2022-11-24T01:49:42.089Z,77197.53
2022-11-24T01:51:22.418Z,77209.38
2022-11-24T01:52:58.114Z,77205.44
2022-11-24T01:54:36.975Z,77207.41
2022-11-24T01:56:14.707Z,77209.38
2022-11-24T01:57:57.723Z,77199.50
2022-11-24T01:59:32.075Z,77193.56
2022-11-24T02:01:06.243Z,77193.56
2022-11-24T02:02:40.437Z,77199.50
2022-11-24T02:04:18.146Z,77213.34
2022-11-24T02:06:03.741Z,77193.56
2022-11-24T02:07:38.684Z,77185.66
2022-11-24T02:09:18.296Z,77191.59
2022-11-24T02:10:51.835Z,77189.59
2022-11-24T02:12:27.637Z,77189.59
2022-11-24T02:14:01.817Z,77187.63
2022-11-24T02:15:36.383Z,77195.53
2022-11-24T02:17:10.113Z,77189.59
2022-11-24T02:18:44.850Z,77195.53
2022-11-24T02:20:18.986Z,77199.50
2022-11-24T02:21:53.964Z,77189.59
2022-11-24T02:24:00.616Z,77181.69
2022-11-24T02:26:00.220Z,77183.69
2022-11-24T02:27:34.433Z,77183.69
2022-11-24T02:29:09.591Z,77185.66
2022-11-24T02:30:43.328Z,77173.78
2022-11-24T02:32:17.365Z,77175.78
2022-11-24T02:33:51.901Z,77169.84
2022-11-24T02:35:28.754Z,77163.91
2022-11-24T02:37:02.478Z,77167.84
2022-11-24T02:38:37.132Z,77165.88
2022-11-24T02:40:11.552Z,77173.78
2022-11-24T02:41:57.890Z,77163.91
2022-11-24T02:43:35.821Z,77165.88
2022-11-24T02:45:10.895Z,77167.84
2022-11-24T02:46:44.788Z,77159.94
2022-11-24T02:48:18.263Z,77159.94
2022-11-24T02:49:51.921Z,77161.94
2022-11-24T02:51:25.806Z,77159.94
2022-11-24T02:52:59.745Z,77159.94
2022-11-24T02:54:33.784Z,77156.00
2022-11-24T02:56:08.418Z,77146.09
2022-11-24T02:57:42.881Z,77144.13
2022-11-24T02:59:16.808Z,77146.09
2022-11-24T03:00:50.983Z,77142.16
2022-11-24T03:02:25.027Z,77142.16
2022-11-24T03:03:58.785Z,77134.25
2022-11-24T03:05:32.593Z,77132.25
2022-11-24T03:07:06.440Z,77132.25
2022-11-24T03:08:40.188Z,77122.38
2022-11-24T03:10:14.679Z,77106.56
2022-11-24T03:11:48.414Z,77110.50
2022-11-24T03:13:21.957Z,77112.47
2022-11-24T03:14:55.788Z,77102.59
2022-11-24T03:16:29.224Z,77092.72
2022-11-24T03:18:02.996Z,77094.69
2022-11-24T03:20:11.768Z,77100.63
2022-11-24T03:21:46.029Z,77094.69
2022-11-24T03:23:19.974Z,77096.66
2022-11-24T03:24:53.806Z,77094.69
2022-11-24T03:26:28.403Z,77102.59
2022-11-24T03:28:02.113Z,77102.59
2022-11-24T03:29:36.442Z,77102.59
2022-11-24T03:31:11.994Z,77100.63
2022-11-24T03:32:45.702Z,77106.56
2022-11-24T03:34:20.347Z,77094.69
2022-11-24T03:35:57.502Z,77088.75
2022-11-24T03:37:36.143Z,77094.69
2022-11-24T03:39:10.422Z,77090.72
2022-11-24T03:40:45.826Z,77082.81
2022-11-24T03:42:19.961Z,77078.88
2022-11-24T03:43:53.770Z,77088.75
2022-11-24T03:45:45.497Z,77072.94
2022-11-24T03:47:20.414Z,77078.88
2022-11-24T03:48:54.440Z,77080.84
2022-11-24T03:50:31.522Z,77074.91
2022-11-24T03:52:08.206Z,77076.88
2022-11-24T03:53:42.214Z,77067.00
2022-11-24T03:55:16.425Z,77070.94
2022-11-24T03:56:50.407Z,77070.94
2022-11-24T03:58:24.323Z,77074.91
2022-11-24T03:59:58.155Z,77076.88
2022-11-24T04:01:31.998Z,77067.00
2022-11-24T04:03:05.500Z,77070.94
2022-11-24T04:04:40.005Z,77057.09
2022-11-24T04:06:14.154Z,77055.13
2022-11-24T04:07:48.766Z,77053.16
2022-11-24T04:09:23.031Z,77055.13
2022-11-24T04:10:59.724Z,77059.09
2022-11-24T04:12:48.385Z,77059.09
2022-11-24T04:14:25.095Z,77049.19
2022-11-24T04:16:01.141Z,77043.25
2022-11-24T04:17:35.009Z,77043.25
2022-11-24T04:19:08.939Z,77049.19
2022-11-24T04:20:43.218Z,77047.22
2022-11-24T04:22:17.299Z,77051.19
2022-11-24T04:23:54.642Z,77045.25
2022-11-24T04:25:28.723Z,77045.25
2022-11-24T04:27:02.714Z,77035.34
2022-11-24T04:28:36.313Z,77031.41
2022-11-24T04:30:10.341Z,77025.47
2022-11-24T04:31:43.932Z,77023.50
2022-11-24T04:33:20.264Z,77031.41
2022-11-24T04:34:53.878Z,77031.41
2022-11-24T04:36:27.652Z,77023.50
2022-11-24T04:38:04.292Z,77017.56
2022-11-24T04:39:39.677Z,77019.53
2022-11-24T04:41:13.388Z,77027.44
2022-11-24T04:42:56.407Z,77025.47
2022-11-24T04:44:30.421Z,77031.41
2022-11-24T04:46:04.162Z,77023.50
2022-11-24T04:47:40.408Z,77029.41
2022-11-24T04:49:14.246Z,77033.38
2022-11-24T04:50:47.853Z,77033.38
2022-11-24T04:52:23.074Z,77035.34
2022-11-24T04:53:59.593Z,77031.41
2022-11-24T04:55:33.388Z,77031.41
2022-11-24T04:57:07.204Z,77019.53
2022-11-24T04:58:40.992Z,77019.53
2022-11-24T05:00:17.736Z,77017.56
2022-11-24T05:01:51.748Z,77019.53
2022-11-24T05:03:28.467Z,77017.56
2022-11-24T05:05:02.484Z,77015.56
2022-11-24T05:06:37.057Z,77015.56
2022-11-24T05:08:10.799Z,77019.53
2022-11-24T05:10:02.958Z,77021.50
2022-11-24T05:11:36.335Z,77011.63
2022-11-24T05:13:13.020Z,77011.63
2022-11-24T05:14:46.795Z,77009.66
2022-11-24T05:16:21.140Z,77023.50
2022-11-24T05:17:56.176Z,77023.50
2022-11-24T05:19:32.375Z,77029.41
2022-11-24T05:21:06.963Z,77035.34
2022-11-24T05:22:40.877Z,77027.44
2022-11-24T05:24:14.660Z,77029.41
2022-11-24T05:25:50.786Z,77035.34
2022-11-24T05:27:24.959Z,77047.22
2022-11-24T05:28:58.774Z,77047.22
2022-11-24T05:30:33.425Z,77037.34
2022-11-24T05:32:07.376Z,77041.28
2022-11-24T05:33:41.020Z,77043.25
2022-11-24T05:35:14.905Z,77031.41
2022-11-24T05:36:54.249Z,77031.41
2022-11-24T05:38:28.202Z,77039.31
2022-11-24T05:40:01.746Z,77025.47
2022-11-24T05:41:37.302Z,77015.56
2022-11-24T05:43:15.178Z,77009.66
2022-11-24T05:44:51.912Z,77019.53
2022-11-24T05:46:25.532Z,77011.63
2022-11-24T05:48:06.363Z,76995.81
2022-11-24T05:49:40.255Z,76995.81
2022-11-24T05:51:13.850Z,76995.81
2022-11-24T05:52:48.023Z,76993.81
2022-11-24T05:54:21.812Z,76999.75
2022-11-24T05:55:55.724Z,77005.69
2022-11-24T05:57:32.315Z,76983.94
2022-11-24T05:59:09.856Z,76991.84
2022-11-24T06:00:44.724Z,76978.00
2022-11-24T06:02:19.823Z,76970.09
2022-11-24T06:03:54.023Z,76968.13
2022-11-24T06:05:30.859Z,76956.25
2022-11-24T06:07:05.450Z,76946.38
2022-11-24T06:08:42.373Z,76944.38
2022-11-24T06:10:22.599Z,76956.25
2022-11-24T06:11:57.252Z,76960.22
2022-11-24T06:13:30.788Z,76948.34
2022-11-24T06:15:05.063Z,76956.25
2022-11-24T06:16:41.746Z,76912.75
2022-11-24T06:18:15.838Z,76926.59
2022-11-24T06:19:50.947Z,76916.69
2022-11-24T06:21:24.830Z,76908.78
2022-11-24T06:23:04.122Z,76889.00
2022-11-24T06:24:37.974Z,76894.94
2022-11-24T06:26:12.408Z,76885.06
2022-11-24T06:27:46.127Z,76871.22
2022-11-24T06:29:20.169Z,76853.41
2022-11-24T06:30:54.819Z,76861.34
2022-11-24T06:32:30.949Z,76849.47
2022-11-24T06:34:08.291Z,76849.47
2022-11-24T06:35:42.181Z,76865.28
2022-11-24T06:37:15.639Z,76881.09
2022-11-24T06:38:49.840Z,76855.41
2022-11-24T06:40:23.363Z,76857.38
2022-11-24T06:42:02.701Z,76843.53
2022-11-24T06:43:37.244Z,76853.41
2022-11-24T06:45:11.987Z,76857.38
2022-11-24T06:46:46.110Z,76857.38
2022-11-24T06:48:19.562Z,76867.25
2022-11-24T06:49:53.058Z,76865.28
2022-11-24T06:51:27.460Z,76869.25
2022-11-24T06:53:01.420Z,76859.34
2022-11-24T06:54:38.395Z,76855.41
2022-11-24T06:56:16.617Z,76833.66
2022-11-24T06:57:50.690Z,76800.03
2022-11-24T06:59:28.562Z,76784.22
2022-11-24T07:01:02.240Z,76766.41
2022-11-24T07:02:37.984Z,76778.28
2022-11-24T07:04:14.370Z,76805.97
2022-11-24T07:05:47.663Z,76790.13
2022-11-24T07:07:21.692Z,76754.53
2022-11-24T07:08:55.125Z,76734.78
2022-11-24T07:10:32.272Z,76722.91
2022-11-24T07:12:08.968Z,76730.81
2022-11-24T07:13:46.430Z,76738.72
2022-11-24T07:15:19.905Z,76724.88
2022-11-24T07:16:53.754Z,76736.75
2022-11-24T07:18:30.637Z,76734.78
2022-11-24T07:20:06.562Z,76718.94
2022-11-24T07:21:40.433Z,76718.94
2022-11-24T07:23:17.112Z,76701.16
2022-11-24T07:24:50.702Z,76707.09
2022-11-24T07:26:28.029Z,76691.25
2022-11-24T07:28:01.977Z,76659.63
2022-11-24T07:29:36.188Z,76653.69
2022-11-24T07:31:12.268Z,76665.56
2022-11-24T07:32:46.706Z,76669.50
2022-11-24T07:34:20.426Z,76679.41
2022-11-24T07:35:54.360Z,76683.34
2022-11-24T07:37:31.310Z,76689.28
2022-11-24T07:39:10.071Z,76718.94
2022-11-24T07:40:43.820Z,76707.09
2022-11-24T07:42:17.596Z,76715.00
2022-11-24T07:43:52.022Z,76707.09
2022-11-24T07:45:26.202Z,76718.94
2022-11-24T07:47:02.965Z,76701.16
2022-11-24T07:48:36.557Z,76718.94
2022-11-24T07:50:14.357Z,76730.81
2022-11-24T07:51:48.000Z,76726.84
2022-11-24T07:53:21.710Z,76740.69
2022-11-24T07:54:55.802Z,76738.72
2022-11-24T07:56:29.520Z,76738.72
2022-11-24T07:58:03.265Z,76738.72
2022-11-24T07:59:36.348Z,76758.50
2022-11-24T08:01:18.117Z,76728.84
2022-11-24T08:02:51.892Z,76750.59
2022-11-24T08:04:25.239Z,76762.44
2022-11-24T08:06:22.427Z,76770.38
2022-11-24T08:08:00.285Z,76776.28
2022-11-24T08:09:33.527Z,76776.28
2022-11-24T08:11:13.181Z,76766.41
2022-11-24T08:12:46.693Z,76782.22
2022-11-24T08:14:20.041Z,76782.22
2022-11-24T08:15:53.072Z,76754.53
2022-11-24T08:17:26.788Z,76792.13
2022-11-24T08:19:00.534Z,76794.09
2022-11-24T08:20:35.320Z,76788.16
2022-11-24T08:22:09.095Z,76829.69
2022-11-24T08:23:43.138Z,76813.88
2022-11-24T08:25:18.361Z,76829.69
2022-11-24T08:26:51.974Z,76833.66
2022-11-24T08:28:25.583Z,76837.59
2022-11-24T08:29:59.161Z,76821.78
2022-11-24T08:31:36.467Z,76829.69
2022-11-24T08:33:10.452Z,76841.56
2022-11-24T08:34:44.298Z,76837.59
2022-11-24T08:36:19.914Z,76821.78
2022-11-24T08:38:01.680Z,76827.72
2022-11-24T08:39:44.817Z,76817.81
2022-11-24T08:41:21.060Z,76829.69
2022-11-24T08:42:59.048Z,76821.78
2022-11-24T08:44:33.267Z,76841.56
2022-11-24T08:46:10.921Z,76841.56
2022-11-24T08:47:45.137Z,76853.41
2022-11-24T08:49:19.391Z,76849.47
2022-11-24T08:50:54.299Z,76849.47
2022-11-24T08:52:28.576Z,76857.38
2022-11-24T08:54:02.774Z,76847.50
2022-11-24T08:55:39.197Z,76853.41
2022-11-24T08:57:21.632Z,76835.63
2022-11-24T08:58:59.506Z,76839.56
2022-11-24T09:00:33.186Z,76841.56
2022-11-24T09:02:07.541Z,76829.69
2022-11-24T09:03:48.547Z,76819.81
2022-11-24T09:05:51.266Z,76829.69
2022-11-24T09:07:20.295Z,76817.81
2022-11-24T09:08:57.855Z,76837.59
2022-11-24T09:10:32.014Z,76837.59
2022-11-24T09:12:09.952Z,76833.66
2022-11-24T09:13:48.072Z,76869.25
2022-11-24T09:15:21.687Z,76847.50
2022-11-24T09:16:55.520Z,76827.72
2022-11-24T09:18:32.666Z,76837.59
2022-11-24T09:20:06.695Z,76833.66
2022-11-24T09:21:43.180Z,76815.84
2022-11-24T09:23:17.358Z,76805.97
2022-11-24T09:24:51.339Z,76803.97
2022-11-24T09:26:28.205Z,76794.09
2022-11-24T09:28:01.831Z,76786.19
2022-11-24T09:29:36.346Z,76790.13
2022-11-24T09:31:12.702Z,76802.00
2022-11-24T09:32:46.232Z,76794.09
2022-11-24T09:34:19.873Z,76809.91
2022-11-24T09:35:54.274Z,76819.81
2022-11-24T09:37:32.468Z,76815.84
2022-11-24T09:39:09.040Z,76817.81
2022-11-24T09:40:42.372Z,76813.88
2022-11-24T09:42:22.863Z,76817.81
2022-11-24T09:44:16.085Z,76821.78
2022-11-24T09:46:05.519Z,76800.03
2022-11-24T09:47:52.612Z,76825.72
2022-11-24T09:49:54.145Z,76817.81
2022-11-24T09:51:31.876Z,76823.75
2022-11-24T09:53:26.677Z,76821.78
2022-11-24T09:55:06.420Z,76807.94
2022-11-24T09:56:43.037Z,76790.13
2022-11-24T09:58:46.636Z,76774.31
2022-11-24T10:00:20.382Z,76766.41
2022-11-24T10:01:56.135Z,76762.44
2022-11-24T10:03:39.332Z,76764.44
2022-11-24T10:05:13.536Z,76760.47
2022-11-24T10:06:59.628Z,76748.59
2022-11-24T10:08:46.027Z,76742.69
2022-11-24T10:10:25.959Z,76742.69
2022-11-24T10:12:11.687Z,76738.72
2022-11-24T10:14:26.705Z,76752.56
2022-11-24T10:16:38.379Z,76742.69
2022-11-24T10:18:23.852Z,76744.66
2022-11-24T10:20:21.826Z,76754.53
2022-11-24T10:22:09.450Z,76738.72
2022-11-24T10:24:18.169Z,76744.66
2022-11-24T10:26:00.091Z,76762.44
2022-11-24T10:28:03.193Z,76764.44
2022-11-24T10:29:43.164Z,76774.31
2022-11-24T10:31:39.608Z,76772.34
2022-11-24T10:33:30.678Z,76774.31
2022-11-24T10:35:28.548Z,76780.25
2022-11-24T10:37:07.238Z,76780.25
2022-11-24T10:39:14.083Z,76784.22
2022-11-24T10:41:11.616Z,76772.34
2022-11-24T10:42:49.226Z,76766.41
2022-11-24T10:44:26.030Z,76752.56
2022-11-24T10:46:15.880Z,76754.53
2022-11-24T10:47:50.978Z,76790.13
2022-11-24T10:49:34.393Z,76780.25
2022-11-24T10:51:22.987Z,76786.19
2022-11-24T10:53:14.169Z,76786.19
2022-11-24T10:55:00.431Z,76798.03
2022-11-24T10:56:45.007Z,76786.19
2022-11-24T10:58:35.879Z,76786.19
2022-11-24T11:00:20.108Z,76805.97
2022-11-24T11:01:54.297Z,76813.88
2022-11-24T11:03:33.373Z,76813.88
2022-11-24T11:05:36.065Z,76811.88
2022-11-24T11:07:19.258Z,76813.88
2022-11-24T11:09:08.012Z,76800.03
2022-11-24T11:10:46.383Z,76817.81
2022-11-24T11:12:47.898Z,76815.84
2022-11-24T11:14:40.099Z,76841.56
2022-11-24T11:16:24.811Z,76829.69
2022-11-24T11:18:01.538Z,76841.56
2022-11-24T11:19:53.215Z,76843.53
2022-11-24T11:21:34.860Z,76863.31
2022-11-24T11:23:22.017Z,76853.41
2022-11-24T11:25:07.532Z,76851.44
2022-11-24T11:26:43.090Z,76865.28
2022-11-24T11:28:29.218Z,76849.47
2022-11-24T11:34:29.827Z,76889.00
2022-11-24T11:36:11.656Z,76892.97
2022-11-24T11:37:49.500Z,76892.97
2022-11-24T11:39:35.972Z,76904.84
2022-11-24T11:41:20.103Z,76900.88
2022-11-24T11:43:10.653Z,76924.59
2022-11-24T11:44:58.515Z,76916.69
2022-11-24T11:46:33.503Z,76916.69
2022-11-24T11:48:13.157Z,76924.59
2022-11-24T11:49:49.702Z,76918.69
2022-11-24T11:51:50.714Z,76920.66
2022-11-24T11:53:53.703Z,76932.53
2022-11-24T11:55:51.905Z,76930.53
2022-11-24T11:57:37.385Z,76940.44
2022-11-24T11:59:45.986Z,76944.38
2022-11-24T12:01:37.442Z,76960.22
2022-11-24T12:03:38.781Z,76964.16
2022-11-24T12:05:25.621Z,76968.13
2022-11-24T12:07:15.429Z,76974.06
2022-11-24T12:09:30.652Z,76968.13
2022-11-24T12:11:36.465Z,76966.13
2022-11-24T12:13:35.349Z,76964.16
2022-11-24T12:15:28.146Z,76970.09
2022-11-24T12:17:31.480Z,76968.13
2022-11-24T12:19:50.355Z,76976.03
2022-11-24T12:21:50.183Z,76983.94
2022-11-24T12:24:01.449Z,76987.88
2022-11-24T12:25:43.661Z,76995.81
2022-11-24T12:27:50.079Z,77005.69
2022-11-24T12:29:48.776Z,76999.75
2022-11-24T12:31:27.878Z,76997.78
2022-11-24T12:33:20.155Z,77015.56
2022-11-24T12:35:03.405Z,77011.63
2022-11-24T12:37:05.003Z,77003.72
2022-11-24T12:39:04.289Z,77011.63
2022-11-24T12:41:18.035Z,77019.53
2022-11-24T12:43:16.323Z,77029.41
2022-11-24T12:45:13.643Z,77035.34
2022-11-24T12:47:04.154Z,77035.34
2022-11-24T12:49:16.261Z,77039.31
2022-11-24T12:50:52.941Z,77043.25
2022-11-24T12:52:31.550Z,77051.19
2022-11-24T12:54:11.073Z,77053.16
2022-11-24T12:55:46.010Z,77059.09
2022-11-24T12:57:27.359Z,77063.03
2022-11-24T12:59:07.021Z,77074.91
2022-11-24T13:00:53.588Z,77074.91
2022-11-24T13:02:40.516Z,77086.78
2022-11-24T13:04:23.455Z,77094.69
2022-11-24T13:06:09.269Z,77098.63
2022-11-24T13:07:59.355Z,77098.63
2022-11-24T13:09:33.129Z,77102.59
2022-11-24T13:11:24.792Z,77100.63
2022-11-24T13:13:10.772Z,77118.41
2022-11-24T13:14:46.794Z,77118.41
2022-11-24T13:16:35.658Z,77134.25
2022-11-24T13:18:42.769Z,77122.38
2022-11-24T13:20:21.996Z,77130.28
2022-11-24T13:22:17.914Z,77130.28
2022-11-24T13:24:07.488Z,77142.16
2022-11-24T13:25:41.368Z,77142.16
2022-11-24T13:27:17.556Z,77150.06
2022-11-24T13:29:23.868Z,77165.88
2022-11-24T13:31:12.061Z,77161.94
2022-11-24T13:32:46.714Z,77171.81
2022-11-24T13:34:55.437Z,77165.88
2022-11-24T13:36:30.949Z,77161.94
2022-11-24T13:38:24.706Z,77169.84
2022-11-24T13:40:04.743Z,77181.69
2022-11-24T13:42:01.287Z,77167.84
2022-11-24T13:43:35.891Z,77179.72
2022-11-24T13:45:41.371Z,77173.78
2022-11-24T13:47:44.004Z,77181.69
2022-11-24T13:49:21.379Z,77183.69
2022-11-24T13:50:54.812Z,77173.78
2022-11-24T13:52:40.339Z,77177.75
2022-11-24T13:54:15.597Z,77179.72
2022-11-24T13:56:13.346Z,77177.75
2022-11-24T13:57:47.702Z,77185.66
2022-11-24T13:59:34.995Z,77181.69
2022-11-24T14:01:22.378Z,77189.59
2022-11-24T14:03:07.518Z,77189.59
2022-11-24T14:04:47.920Z,77193.56
2022-11-24T14:06:34.990Z,77195.53
2022-11-24T14:08:20.062Z,77211.38
2022-11-24T14:09:54.273Z,77219.28
2022-11-24T14:11:29.692Z,77203.47
2022-11-24T14:13:28.867Z,77199.50
2022-11-24T14:15:24.936Z,77217.31
2022-11-24T14:17:09.193Z,77213.34
2022-11-24T14:18:52.354Z,77207.41
2022-11-24T14:20:27.434Z,77215.31
2022-11-24T14:22:01.084Z,77221.25
2022-11-24T14:23:34.521Z,77227.19
2022-11-24T14:25:30.525Z,77229.16
2022-11-24T14:27:04.444Z,77233.13
2022-11-24T14:28:37.653Z,77231.16
2022-11-24T14:30:12.784Z,77237.06
2022-11-24T14:32:02.422Z,77245.00
2022-11-24T14:33:36.634Z,77254.88
2022-11-24T14:35:27.962Z,77270.69
2022-11-24T14:37:02.167Z,77243.00
2022-11-24T14:38:35.952Z,77260.81
2022-11-24T14:40:40.944Z,77245.00
2022-11-24T14:42:23.872Z,77241.03
2022-11-24T14:44:09.428Z,77231.16
2022-11-24T14:45:51.581Z,77241.03
2022-11-24T14:47:34.307Z,77245.00
2022-11-24T14:49:08.591Z,77246.97
2022-11-24T14:50:42.153Z,77241.03
2022-11-24T14:52:19.460Z,77241.03
2022-11-24T14:53:59.099Z,77248.94
2022-11-24T14:55:35.847Z,77264.75
2022-11-24T14:57:33.995Z,77254.88
2022-11-24T14:59:25.535Z,77256.84
2022-11-24T15:01:10.976Z,77266.75
2022-11-24T15:02:55.151Z,77264.75
2022-11-24T15:05:01.531Z,77276.63
2022-11-24T15:06:26.118Z,77272.69
2022-11-24T15:08:04.157Z,77284.53
2022-11-24T15:09:54.707Z,77272.69
2022-11-24T15:11:32.205Z,77272.69
2022-11-24T15:13:18.464Z,77276.63
2022-11-24T15:14:54.956Z,77270.69
2022-11-24T15:16:30.533Z,77274.66
2022-11-24T15:18:06.440Z,77272.69
2022-11-24T15:19:39.988Z,77280.59
2022-11-24T15:21:19.623Z,77284.53
2022-11-24T15:23:21.322Z,77288.50
2022-11-24T15:24:55.349Z,77292.44
2022-11-24T15:26:41.401Z,77280.59
2022-11-24T15:28:15.488Z,77296.41
2022-11-24T15:29:48.934Z,77294.44
2022-11-24T15:31:22.886Z,77290.47
2022-11-24T15:32:58.949Z,77292.44
2022-11-24T15:34:32.735Z,77292.44
2022-11-24T15:36:07.132Z,77300.38
2022-11-24T15:37:40.744Z,77294.44
2022-11-24T15:39:14.287Z,77290.47
2022-11-24T15:40:50.969Z,77300.38
2022-11-24T15:42:24.788Z,77300.38
2022-11-24T15:44:01.625Z,77292.44
2022-11-24T15:45:35.249Z,77300.38
2022-11-24T15:47:09.331Z,77298.38
2022-11-24T15:48:42.770Z,77308.28
2022-11-24T15:50:17.355Z,77312.22
2022-11-24T15:51:53.437Z,77302.34
2022-11-24T15:53:38.522Z,77310.25
2022-11-24T15:55:22.800Z,77314.22
2022-11-24T15:56:56.007Z,77322.13
2022-11-24T15:58:29.614Z,77316.19
2022-11-24T16:00:03.883Z,77320.13
2022-11-24T16:01:47.398Z,77316.19
2022-11-24T16:03:46.254Z,77320.13
2022-11-24T16:05:16.315Z,77322.13
2022-11-24T16:06:50.029Z,77328.06
2022-11-24T16:08:23.661Z,77335.97
2022-11-24T16:09:57.139Z,77339.91
2022-11-24T16:11:30.300Z,77332.00
2022-11-24T16:13:04.374Z,77330.03
2022-11-24T16:14:38.545Z,77324.09
2022-11-24T16:16:14.001Z,77318.16
2022-11-24T16:17:48.726Z,77332.00
2022-11-24T16:19:22.467Z,77335.97
2022-11-24T16:20:59.816Z,77335.97
2022-11-24T16:22:33.261Z,77343.88
2022-11-24T16:24:07.515Z,77335.97
2022-11-24T16:25:41.045Z,77335.97
2022-11-24T16:27:14.457Z,77345.84
2022-11-24T16:28:47.994Z,77339.91
2022-11-24T16:30:21.302Z,77339.91
2022-11-24T16:31:55.401Z,77355.75
2022-11-24T16:33:34.842Z,77351.78
2022-11-24T16:35:08.731Z,77353.75
2022-11-24T16:36:42.188Z,77343.88
2022-11-24T16:38:20.341Z,77347.81
2022-11-24T16:39:56.672Z,77343.88
2022-11-24T16:41:30.086Z,77363.66
2022-11-24T16:43:03.524Z,77357.72
2022-11-24T16:44:37.397Z,77363.66
2022-11-24T16:46:21.720Z,77359.69
2022-11-24T16:47:56.045Z,77359.69
2022-11-24T16:49:29.518Z,77355.75
2022-11-24T16:51:07.410Z,77359.69
2022-11-24T16:52:40.941Z,77363.66
2022-11-24T16:54:17.646Z,77367.59
2022-11-24T16:55:58.553Z,77361.69
2022-11-24T16:57:32.696Z,77371.56
2022-11-24T16:59:06.708Z,77375.53
2022-11-24T17:00:40.697Z,77387.38
2022-11-24T17:02:15.041Z,77379.47
2022-11-24T17:03:48.814Z,77395.28
2022-11-24T17:05:22.346Z,77403.22
2022-11-24T17:06:58.857Z,77399.25
2022-11-24T17:08:36.516Z,77409.13
2022-11-24T17:10:10.496Z,77401.22
2022-11-24T17:11:43.887Z,77391.34
2022-11-24T17:13:17.361Z,77395.28
2022-11-24T17:15:16.348Z,77401.22
2022-11-24T17:16:47.855Z,77401.22
2022-11-24T17:18:25.497Z,77401.22
2022-11-24T17:19:59.055Z,77417.06
2022-11-24T17:21:33.462Z,77395.28
2022-11-24T17:23:07.445Z,77411.13
2022-11-24T17:24:40.988Z,77411.13
2022-11-24T17:26:19.171Z,77417.06
2022-11-24T17:27:53.388Z,77417.06
2022-11-24T17:29:26.892Z,77415.06
2022-11-24T17:31:10.324Z,77419.03
2022-11-24T17:32:43.826Z,77409.13
2022-11-24T17:34:17.103Z,77413.09
2022-11-24T17:35:53.896Z,77419.03
2022-11-24T17:37:27.368Z,77426.94
2022-11-24T17:39:09.803Z,77434.84
2022-11-24T17:40:52.714Z,77442.75
2022-11-24T17:42:26.685Z,77444.75
2022-11-24T17:44:01.825Z,77446.72
2022-11-24T17:45:35.176Z,77444.75
2022-11-24T17:47:08.960Z,77448.69
2022-11-24T17:48:42.522Z,77444.75
2022-11-24T17:50:15.980Z,77446.72
2022-11-24T17:51:51.038Z,77444.75
2022-11-24T17:53:24.460Z,77440.78
2022-11-24T17:54:58.520Z,77452.66
2022-11-24T17:56:32.400Z,77464.53
2022-11-24T17:58:05.834Z,77460.56
2022-11-24T17:59:42.519Z,77462.53
2022-11-24T18:01:16.014Z,77464.53
2022-11-24T18:02:49.703Z,77464.53
2022-11-24T18:04:23.375Z,77470.47
2022-11-24T18:05:56.692Z,77470.47
2022-11-24T18:07:30.913Z,77468.47
2022-11-24T18:09:04.714Z,77474.41
2022-11-24T18:10:38.840Z,77470.47
2022-11-24T18:12:12.118Z,77474.41
2022-11-24T18:13:58.472Z,77474.41
2022-11-24T18:15:35.394Z,77484.28
2022-11-24T18:17:10.476Z,77494.19
2022-11-24T18:18:50.069Z,77508.03
2022-11-24T18:20:27.158Z,77498.16
2022-11-24T18:22:03.967Z,77498.16
2022-11-24T18:23:37.474Z,77502.09
2022-11-24T18:25:11.290Z,77510.00
2022-11-24T18:26:46.081Z,77512.00
2022-11-24T18:28:19.542Z,77508.03
2022-11-24T18:29:56.136Z,77506.06
2022-11-24T18:31:31.527Z,77506.06
2022-11-24T18:33:07.871Z,77506.06
2022-11-24T18:34:41.093Z,77500.13
2022-11-24T18:36:18.358Z,77506.06
2022-11-24T18:37:52.249Z,77510.00
2022-11-24T18:39:30.414Z,77517.91
2022-11-24T18:41:04.877Z,77508.03
2022-11-24T18:42:38.214Z,77521.88
2022-11-24T18:44:11.315Z,77521.88
2022-11-24T18:45:46.397Z,77527.81
2022-11-24T18:47:19.533Z,77531.75
2022-11-24T18:48:53.403Z,77541.66
2022-11-24T18:50:26.390Z,77541.66
2022-11-24T18:52:00.429Z,77543.63
2022-11-24T18:53:33.691Z,77545.63
2022-11-24T18:55:07.215Z,77543.63
2022-11-24T18:56:40.714Z,77537.69
2022-11-24T18:58:17.021Z,77541.66
2022-11-24T18:59:49.958Z,77533.75
2022-11-24T19:01:25.594Z,77533.75
2022-11-24T19:02:58.792Z,77541.66
2022-11-24T19:04:31.980Z,77531.75
2022-11-24T19:06:07.273Z,77525.84
2022-11-24T19:07:40.436Z,77527.81
2022-11-24T19:09:15.948Z,77525.84
2022-11-24T19:10:50.229Z,77541.66
2022-11-24T19:12:23.495Z,77523.84
2022-11-24T19:13:57.361Z,77529.78
2022-11-24T19:15:36.647Z,77531.75
2022-11-24T19:17:12.909Z,77533.75
2022-11-24T19:18:50.413Z,77541.66
2022-11-24T19:20:27.097Z,77539.69
2022-11-24T19:22:01.339Z,77553.53
2022-11-24T19:23:35.231Z,77553.53
2022-11-24T19:25:09.114Z,77559.47